sensor_id;sensor_type;location;lat;lon;timestamp;temperature;humidity
22071;DHT22;11200;51.488;6.668;2023-02-14T04:48:06;3.90;99.90
22071;DHT22;11200;51.488;6.668;2023-02-14T04:50:35;5.40;99.90
22071;DHT22;11200;51.488;6.668;2023-02-14T04:53:00;3.90;99.90
22071;DHT22;11200;51.488;6.668;2023-02-14T04:55:26;3.60;99.90
22071;DHT22;11200;51.488;6.668;2023-02-14T04:57:51;4.30;99.90
22071;DHT22;11200;51.488;6.668;2023-02-14T05:00:18;3.30;99.90
22071;DHT22;11200;51.488;6.668;2023-02-14T05:02:43;3.80;99.90
22071;DHT22;11200;51.488;6.668;2023-02-14T05:05:09;3.80;99.90
22071;DHT22;11200;51.488;6.668;2023-02-14T05:07:35;4.00;99.90
22071;DHT22;11200;51.488;6.668;2023-02-14T05:10:01;3.90;99.90
22071;DHT22;11200;51.488;6.668;2023-02-14T05:12:27;4.00;99.90
22071;DHT22;11200;51.488;6.668;2023-02-14T05:17:38;4.60;99.90
22071;DHT22;11200;51.488;6.668;2023-02-14T05:20:05;5.60;99.90
22071;DHT22;11200;51.488;6.668;2023-02-14T05:22:37;4.20;99.90
22071;DHT22;11200;51.488;6.668;2023-02-14T05:25:06;4.10;99.90
22071;DHT22;11200;51.488;6.668;2023-02-14T05:27:31;3.70;99.90
22071;DHT22;11200;51.488;6.668;2023-02-14T05:30:18;5.10;99.90
22071;DHT22;11200;51.488;6.668;2023-02-14T05:32:46;3.60;99.90
22071;DHT22;11200;51.488;6.668;2023-02-14T05:35:12;5.20;99.90
22071;DHT22;11200;51.488;6.668;2023-02-14T05:37:37;5.20;99.90
22071;DHT22;11200;51.488;6.668;2023-02-14T05:40:04;3.40;99.90
22071;DHT22;11200;51.488;6.668;2023-02-14T05:42:31;3.50;99.90
22071;DHT22;11200;51.488;6.668;2023-02-14T05:44:57;3.60;99.90
22071;DHT22;11200;51.488;6.668;2023-02-14T05:47:22;4.70;99.90
22071;DHT22;11200;51.488;6.668;2023-02-14T05:49:48;3.40;99.90
22071;DHT22;11200;51.488;6.668;2023-02-14T05:52:56;3.70;99.90
22071;DHT22;11200;51.488;6.668;2023-02-14T05:58:26;4.20;99.90
22071;DHT22;11200;51.488;6.668;2023-02-14T06:01:35;5.30;99.90
22071;DHT22;11200;51.488;6.668;2023-02-14T06:07:43;4.10;99.90
22071;DHT22;11200;51.488;6.668;2023-02-14T06:10:21;3.80;99.90
22071;DHT22;11200;51.488;6.668;2023-02-14T06:12:48;3.50;99.90
22071;DHT22;11200;51.488;6.668;2023-02-14T06:15:14;3.20;99.90
22071;DHT22;11200;51.488;6.668;2023-02-14T06:17:40;3.20;99.90
22071;DHT22;11200;51.488;6.668;2023-02-14T06:20:07;3.40;99.90
22071;DHT22;11200;51.488;6.668;2023-02-14T06:22:39;3.40;99.90
22071;DHT22;11200;51.488;6.668;2023-02-14T06:25:05;4.90;99.90
22071;DHT22;11200;51.488;6.668;2023-02-14T06:27:31;3.40;99.90
22071;DHT22;11200;51.488;6.668;2023-02-14T06:29:56;4.40;99.90
22071;DHT22;11200;51.488;6.668;2023-02-14T06:32:23;4.60;99.90
22071;DHT22;11200;51.488;6.668;2023-02-14T06:34:48;3.00;99.90
22071;DHT22;11200;51.488;6.668;2023-02-14T06:37:14;4.60;99.90
22071;DHT22;11200;51.488;6.668;2023-02-14T06:39:40;5.20;99.90
22071;DHT22;11200;51.488;6.668;2023-02-14T06:42:05;3.10;99.90
22071;DHT22;11200;51.488;6.668;2023-02-14T06:44:34;4.00;99.90
22071;DHT22;11200;51.488;6.668;2023-02-14T06:47:00;2.90;99.90
22071;DHT22;11200;51.488;6.668;2023-02-14T06:49:25;3.10;99.90
22071;DHT22;11200;51.488;6.668;2023-02-14T06:51:51;3.10;99.90
22071;DHT22;11200;51.488;6.668;2023-02-14T06:54:17;3.30;99.90
22071;DHT22;11200;51.488;6.668;2023-02-14T06:56:42;3.20;99.90
22071;DHT22;11200;51.488;6.668;2023-02-14T06:59:08;3.20;99.90
22071;DHT22;11200;51.488;6.668;2023-02-14T07:01:34;3.30;99.90
22071;DHT22;11200;51.488;6.668;2023-02-14T07:03:59;3.20;99.90
22071;DHT22;11200;51.488;6.668;2023-02-14T07:06:25;3.20;99.90
22071;DHT22;11200;51.488;6.668;2023-02-14T07:08:51;3.20;99.90
22071;DHT22;11200;51.488;6.668;2023-02-14T07:11:16;3.10;99.90
22071;DHT22;11200;51.488;6.668;2023-02-14T07:13:42;3.20;99.90
22071;DHT22;11200;51.488;6.668;2023-02-14T07:16:09;3.20;99.90
22071;DHT22;11200;51.488;6.668;2023-02-14T07:18:35;3.60;99.90
22071;DHT22;11200;51.488;6.668;2023-02-14T07:21:01;3.20;99.90
22071;DHT22;11200;51.488;6.668;2023-02-14T07:23:26;3.50;99.90
22071;DHT22;11200;51.488;6.668;2023-02-14T07:25:54;3.10;99.90
22071;DHT22;11200;51.488;6.668;2023-02-14T07:28:20;3.20;99.90
22071;DHT22;11200;51.488;6.668;2023-02-14T07:30:45;3.20;99.90
22071;DHT22;11200;51.488;6.668;2023-02-14T07:33:11;3.20;99.90
22071;DHT22;11200;51.488;6.668;2023-02-14T07:35:37;3.20;99.90
22071;DHT22;11200;51.488;6.668;2023-02-14T07:38:02;3.20;99.90
22071;DHT22;11200;51.488;6.668;2023-02-14T07:40:28;3.20;99.90
22071;DHT22;11200;51.488;6.668;2023-02-14T07:42:55;3.30;99.90
22071;DHT22;11200;51.488;6.668;2023-02-14T07:45:22;3.30;99.90
22071;DHT22;11200;51.488;6.668;2023-02-14T07:47:49;3.20;99.90
22071;DHT22;11200;51.488;6.668;2023-02-14T07:50:16;3.40;99.90
22071;DHT22;11200;51.488;6.668;2023-02-14T07:52:41;3.40;99.90
22071;DHT22;11200;51.488;6.668;2023-02-14T07:55:07;3.40;99.90
22071;DHT22;11200;51.488;6.668;2023-02-14T07:57:33;3.40;99.90
22071;DHT22;11200;51.488;6.668;2023-02-14T07:59:58;3.50;99.90
22071;DHT22;11200;51.488;6.668;2023-02-14T08:02:24;3.60;99.90
22071;DHT22;11200;51.488;6.668;2023-02-14T08:04:50;3.50;99.90
22071;DHT22;11200;51.488;6.668;2023-02-14T08:07:15;3.60;99.90
22071;DHT22;11200;51.488;6.668;2023-02-14T08:09:41;3.60;99.90
22071;DHT22;11200;51.488;6.668;2023-02-14T08:12:06;3.70;99.90
22071;DHT22;11200;51.488;6.668;2023-02-14T08:14:51;3.70;99.90
22071;DHT22;11200;51.488;6.668;2023-02-14T08:17:16;3.90;99.90
22071;DHT22;11200;51.488;6.668;2023-02-14T08:19:42;4.00;99.90
22071;DHT22;11200;51.488;6.668;2023-02-14T08:22:07;3.80;99.90
22071;DHT22;11200;51.488;6.668;2023-02-14T08:24:33;3.90;99.90
22071;DHT22;11200;51.488;6.668;2023-02-14T08:26:59;4.00;99.90
22071;DHT22;11200;51.488;6.668;2023-02-14T08:29:24;4.10;99.90
22071;DHT22;11200;51.488;6.668;2023-02-14T08:31:50;4.30;99.90
22071;DHT22;11200;51.488;6.668;2023-02-14T08:34:17;4.10;99.90
22071;DHT22;11200;51.488;6.668;2023-02-14T08:36:43;4.20;99.90
22071;DHT22;11200;51.488;6.668;2023-02-14T08:39:09;4.30;99.90
22071;DHT22;11200;51.488;6.668;2023-02-14T08:41:35;4.30;99.90
22071;DHT22;11200;51.488;6.668;2023-02-14T08:44:01;4.40;99.90
22071;DHT22;11200;51.488;6.668;2023-02-14T08:46:27;4.60;99.90
22071;DHT22;11200;51.488;6.668;2023-02-14T08:48:53;4.60;99.90
22071;DHT22;11200;51.488;6.668;2023-02-14T08:51:19;4.90;99.90
22071;DHT22;11200;51.488;6.668;2023-02-14T08:53:49;5.10;99.90
22071;DHT22;11200;51.488;6.668;2023-02-14T08:56:15;5.40;99.90
22071;DHT22;11200;51.488;6.668;2023-02-14T08:58:40;5.60;99.90
22071;DHT22;11200;51.488;6.668;2023-02-14T09:01:12;6.40;99.90
22071;DHT22;11200;51.488;6.668;2023-02-14T09:03:38;6.30;99.90
22071;DHT22;11200;51.488;6.668;2023-02-14T09:06:06;6.60;99.90
22071;DHT22;11200;51.488;6.668;2023-02-14T09:08:32;7.00;99.90
22071;DHT22;11200;51.488;6.668;2023-02-14T09:11:09;7.20;99.90
22071;DHT22;11200;51.488;6.668;2023-02-14T09:13:35;7.50;99.90
22071;DHT22;11200;51.488;6.668;2023-02-14T09:16:05;7.80;99.90
22071;DHT22;11200;51.488;6.668;2023-02-14T09:18:31;8.00;99.90
22071;DHT22;11200;51.488;6.668;2023-02-14T09:20:56;8.40;99.90
22071;DHT22;11200;51.488;6.668;2023-02-14T09:23:22;8.40;99.90
22071;DHT22;11200;51.488;6.668;2023-02-14T09:25:48;8.70;99.90
22071;DHT22;11200;51.488;6.668;2023-02-14T09:28:13;8.70;99.90
22071;DHT22;11200;51.488;6.668;2023-02-14T09:30:39;8.80;99.90
22071;DHT22;11200;51.488;6.668;2023-02-14T09:33:05;9.00;99.90
22071;DHT22;11200;51.488;6.668;2023-02-14T09:35:31;9.20;99.90
22071;DHT22;11200;51.488;6.668;2023-02-14T09:37:57;9.40;99.90
22071;DHT22;11200;51.488;6.668;2023-02-14T09:40:41;9.60;99.90
22071;DHT22;11200;51.488;6.668;2023-02-14T09:43:13;9.80;99.90
22071;DHT22;11200;51.488;6.668;2023-02-14T09:45:41;9.90;99.90
22071;DHT22;11200;51.488;6.668;2023-02-14T09:48:33;10.00;99.90
22071;DHT22;11200;51.488;6.668;2023-02-14T09:51:10;10.00;99.90
22071;DHT22;11200;51.488;6.668;2023-02-14T10:01:35;10.40;99.90
22071;DHT22;11200;51.488;6.668;2023-02-14T10:04:12;10.50;99.90
22071;DHT22;11200;51.488;6.668;2023-02-14T10:06:47;10.70;99.90
22071;DHT22;11200;51.488;6.668;2023-02-14T10:11:49;11.30;99.90
22071;DHT22;11200;51.488;6.668;2023-02-14T10:14:21;11.60;99.90
22071;DHT22;11200;51.488;6.668;2023-02-14T10:17:14;11.80;99.90
22071;DHT22;11200;51.488;6.668;2023-02-14T10:19:46;12.20;99.90
22071;DHT22;11200;51.488;6.668;2023-02-14T10:22:17;12.60;99.90
22071;DHT22;11200;51.488;6.668;2023-02-14T10:24:54;13.00;99.90
22071;DHT22;11200;51.488;6.668;2023-02-14T10:29:56;13.70;99.90
22071;DHT22;11200;51.488;6.668;2023-02-14T10:32:43;14.20;99.90
22071;DHT22;11200;51.488;6.668;2023-02-14T10:40:43;15.20;99.90
22071;DHT22;11200;51.488;6.668;2023-02-14T10:59:21;16.90;99.90
22071;DHT22;11200;51.488;6.668;2023-02-14T11:01:51;17.10;99.90
22071;DHT22;11200;51.488;6.668;2023-02-14T11:04:19;17.30;99.90
22071;DHT22;11200;51.488;6.668;2023-02-14T11:06:46;17.40;99.90
22071;DHT22;11200;51.488;6.668;2023-02-14T11:09:14;17.60;99.90
22071;DHT22;11200;51.488;6.668;2023-02-14T11:11:50;17.70;99.90
22071;DHT22;11200;51.488;6.668;2023-02-14T11:14:33;17.90;99.90
22071;DHT22;11200;51.488;6.668;2023-02-14T11:17:29;17.80;99.90
22071;DHT22;11200;51.488;6.668;2023-02-14T11:19:59;17.80;99.90
22071;DHT22;11200;51.488;6.668;2023-02-14T11:22:33;17.90;99.90
22071;DHT22;11200;51.488;6.668;2023-02-14T11:25:25;17.90;99.90
22071;DHT22;11200;51.488;6.668;2023-02-14T11:28:12;18.00;99.90
22071;DHT22;11200;51.488;6.668;2023-02-14T11:30:42;18.00;99.90
22071;DHT22;11200;51.488;6.668;2023-02-14T11:33:36;18.00;99.90
22071;DHT22;11200;51.488;6.668;2023-02-14T11:36:05;18.30;99.90
22071;DHT22;11200;51.488;6.668;2023-02-14T11:38:35;18.00;99.90
22071;DHT22;11200;51.488;6.668;2023-02-14T11:41:04;18.00;99.90
22071;DHT22;11200;51.488;6.668;2023-02-14T11:43:37;17.90;99.90
22071;DHT22;11200;51.488;6.668;2023-02-14T11:48:34;17.90;99.90
22071;DHT22;11200;51.488;6.668;2023-02-14T11:51:03;17.90;99.90
22071;DHT22;11200;51.488;6.668;2023-02-14T11:53:54;17.80;99.90
22071;DHT22;11200;51.488;6.668;2023-02-14T11:56:22;17.80;99.90
22071;DHT22;11200;51.488;6.668;2023-02-14T11:58:54;17.80;99.90
22071;DHT22;11200;51.488;6.668;2023-02-14T12:01:25;17.80;99.90
22071;DHT22;11200;51.488;6.668;2023-02-14T12:03:54;17.80;99.90
22071;DHT22;11200;51.488;6.668;2023-02-14T12:06:24;17.90;99.90
22071;DHT22;11200;51.488;6.668;2023-02-14T12:08:50;17.90;99.90
22071;DHT22;11200;51.488;6.668;2023-02-14T12:11:23;17.90;99.90
22071;DHT22;11200;51.488;6.668;2023-02-14T12:13:56;17.90;99.90
22071;DHT22;11200;51.488;6.668;2023-02-14T12:16:34;17.90;99.90
22071;DHT22;11200;51.488;6.668;2023-02-14T12:19:06;17.90;99.90
22071;DHT22;11200;51.488;6.668;2023-02-14T12:21:50;18.00;99.90
22071;DHT22;11200;51.488;6.668;2023-02-14T12:24:29;18.00;99.90
22071;DHT22;11200;51.488;6.668;2023-02-14T12:27:20;18.00;99.90
22071;DHT22;11200;51.488;6.668;2023-02-14T12:32:29;18.00;99.90
22071;DHT22;11200;51.488;6.668;2023-02-14T12:38:14;18.00;99.90
22071;DHT22;11200;51.488;6.668;2023-02-14T12:41:19;18.00;99.90
22071;DHT22;11200;51.488;6.668;2023-02-14T12:43:55;18.00;99.90
22071;DHT22;11200;51.488;6.668;2023-02-14T12:46:34;17.90;99.90
22071;DHT22;11200;51.488;6.668;2023-02-14T12:55:04;17.80;99.90
22071;DHT22;11200;51.488;6.668;2023-02-14T13:11:32;17.50;99.90
22071;DHT22;11200;51.488;6.668;2023-02-14T13:16:56;17.30;99.90
22071;DHT22;11200;51.488;6.668;2023-02-14T13:22:21;17.20;99.90
22071;DHT22;11200;51.488;6.668;2023-02-14T13:24:50;17.10;99.90
22071;DHT22;11200;51.488;6.668;2023-02-14T13:27:22;17.00;99.90
22071;DHT22;11200;51.488;6.668;2023-02-14T13:29:55;16.90;99.90
22071;DHT22;11200;51.488;6.668;2023-02-14T13:32:26;16.80;99.90
22071;DHT22;11200;51.488;6.668;2023-02-14T13:34:53;16.80;99.90
22071;DHT22;11200;51.488;6.668;2023-02-14T13:37:21;16.70;99.90
22071;DHT22;11200;51.488;6.668;2023-02-14T13:40:05;16.50;99.90
22071;DHT22;11200;51.488;6.668;2023-02-14T13:48:13;16.20;99.90
22071;DHT22;11200;51.488;6.668;2023-02-14T13:51:00;16.20;99.90
22071;DHT22;11200;51.488;6.668;2023-02-14T13:58:54;15.90;99.90
22071;DHT22;11200;51.488;6.668;2023-02-14T14:01:39;15.80;99.90
22071;DHT22;11200;51.488;6.668;2023-02-14T14:19:58;15.10;99.90
22071;DHT22;11200;51.488;6.668;2023-02-14T14:22:25;15.10;99.90
22071;DHT22;11200;51.488;6.668;2023-02-14T14:25:03;15.00;99.90
22071;DHT22;11200;51.488;6.668;2023-02-14T14:27:39;15.00;99.90
22071;DHT22;11200;51.488;6.668;2023-02-14T14:30:24;14.90;99.90
22071;DHT22;11200;51.488;6.668;2023-02-14T14:32:52;14.80;99.90
22071;DHT22;11200;51.488;6.668;2023-02-14T14:35:22;14.80;99.90
22071;DHT22;11200;51.488;6.668;2023-02-14T14:37:51;14.70;99.90
22071;DHT22;11200;51.488;6.668;2023-02-14T14:40:34;14.60;99.90
22071;DHT22;11200;51.488;6.668;2023-02-14T14:43:36;14.70;99.90
22071;DHT22;11200;51.488;6.668;2023-02-14T14:46:07;15.00;99.90
22071;DHT22;11200;51.488;6.668;2023-02-14T14:48:47;14.50;99.90
22071;DHT22;11200;51.488;6.668;2023-02-14T14:51:31;14.40;99.90
22071;DHT22;11200;51.488;6.668;2023-02-14T14:56:34;14.30;99.90
22071;DHT22;11200;51.488;6.668;2023-02-14T14:59:18;14.30;99.90
22071;DHT22;11200;51.488;6.668;2023-02-14T15:01:44;14.20;99.90
22071;DHT22;11200;51.488;6.668;2023-02-14T15:06:38;14.10;99.90
22071;DHT22;11200;51.488;6.668;2023-02-14T15:11:42;14.00;99.90
22071;DHT22;11200;51.488;6.668;2023-02-14T15:14:28;14.00;99.90
22071;DHT22;11200;51.488;6.668;2023-02-14T15:17:00;13.90;99.90
22071;DHT22;11200;51.488;6.668;2023-02-14T15:19:38;13.90;99.90
22071;DHT22;11200;51.488;6.668;2023-02-14T15:22:26;13.80;99.90
22071;DHT22;11200;51.488;6.668;2023-02-14T15:24:54;13.70;99.90
22071;DHT22;11200;51.488;6.668;2023-02-14T15:27:23;13.70;99.90
22071;DHT22;11200;51.488;6.668;2023-02-14T15:32:44;13.60;99.90
22071;DHT22;11200;51.488;6.668;2023-02-14T15:35:13;13.60;99.90
22071;DHT22;11200;51.488;6.668;2023-02-14T15:37:44;13.50;99.90
22071;DHT22;11200;51.488;6.668;2023-02-14T15:40:20;13.40;99.90
22071;DHT22;11200;51.488;6.668;2023-02-14T15:42:47;13.40;99.90
22071;DHT22;11200;51.488;6.668;2023-02-14T15:48:22;13.30;99.90
22071;DHT22;11200;51.488;6.668;2023-02-14T15:50:55;13.20;99.90
22071;DHT22;11200;51.488;6.668;2023-02-14T15:55:54;13.10;99.90
22071;DHT22;11200;51.488;6.668;2023-02-14T15:58:28;13.10;99.90
22071;DHT22;11200;51.488;6.668;2023-02-14T16:00:57;13.00;99.90
22071;DHT22;11200;51.488;6.668;2023-02-14T16:03:25;13.00;99.90
22071;DHT22;11200;51.488;6.668;2023-02-14T16:05:52;12.90;99.90
22071;DHT22;11200;51.488;6.668;2023-02-14T16:08:36;12.90;99.90
22071;DHT22;11200;51.488;6.668;2023-02-14T16:11:12;12.80;99.90
22071;DHT22;11200;51.488;6.668;2023-02-14T16:13:45;12.80;99.90
22071;DHT22;11200;51.488;6.668;2023-02-14T16:16:12;12.70;99.90
22071;DHT22;11200;51.488;6.668;2023-02-14T16:18:50;12.60;99.90
22071;DHT22;11200;51.488;6.668;2023-02-14T16:26:33;12.40;99.90
22071;DHT22;11200;51.488;6.668;2023-02-14T16:29:01;12.30;99.90
22071;DHT22;11200;51.488;6.668;2023-02-14T16:31:27;12.30;99.90
22071;DHT22;11200;51.488;6.668;2023-02-14T16:33:52;12.20;99.90
22071;DHT22;11200;51.488;6.668;2023-02-14T16:36:29;12.10;99.90
22071;DHT22;11200;51.488;6.668;2023-02-14T16:38:56;12.10;99.90
22071;DHT22;11200;51.488;6.668;2023-02-14T16:41:24;12.00;99.90
22071;DHT22;11200;51.488;6.668;2023-02-14T16:43:52;11.90;99.90
22071;DHT22;11200;51.488;6.668;2023-02-14T16:48:54;11.80;99.90
22071;DHT22;11200;51.488;6.668;2023-02-14T16:51:26;11.70;99.90
22071;DHT22;11200;51.488;6.668;2023-02-14T16:53:52;11.60;99.90
22071;DHT22;11200;51.488;6.668;2023-02-14T16:56:20;11.60;99.90
22071;DHT22;11200;51.488;6.668;2023-02-14T16:58:47;11.50;99.90
22071;DHT22;11200;51.488;6.668;2023-02-14T17:01:13;11.40;99.90
22071;DHT22;11200;51.488;6.668;2023-02-14T17:03:39;11.30;99.90
22071;DHT22;11200;51.488;6.668;2023-02-14T17:06:10;11.30;99.90
22071;DHT22;11200;51.488;6.668;2023-02-14T17:08:38;11.20;99.90
22071;DHT22;11200;51.488;6.668;2023-02-14T17:11:05;11.10;99.90
22071;DHT22;11200;51.488;6.668;2023-02-14T17:13:32;11.00;99.90
22071;DHT22;11200;51.488;6.668;2023-02-14T17:15:59;11.00;99.90
22071;DHT22;11200;51.488;6.668;2023-02-14T17:18:26;10.90;99.90
22071;DHT22;11200;51.488;6.668;2023-02-14T17:20:52;10.80;99.90
22071;DHT22;11200;51.488;6.668;2023-02-14T17:23:18;10.80;99.90
22071;DHT22;11200;51.488;6.668;2023-02-14T17:25:45;10.70;99.90
22071;DHT22;11200;51.488;6.668;2023-02-14T17:28:10;10.60;99.90
22071;DHT22;11200;51.488;6.668;2023-02-14T17:30:36;10.50;99.90
22071;DHT22;11200;51.488;6.668;2023-02-14T17:33:02;10.40;99.90
22071;DHT22;11200;51.488;6.668;2023-02-14T17:35:27;10.40;99.90
22071;DHT22;11200;51.488;6.668;2023-02-14T17:37:54;10.30;99.90
22071;DHT22;11200;51.488;6.668;2023-02-14T17:40:20;10.20;99.90
22071;DHT22;11200;51.488;6.668;2023-02-14T17:42:45;10.10;99.90
22071;DHT22;11200;51.488;6.668;2023-02-14T17:45:11;10.10;99.90
22071;DHT22;11200;51.488;6.668;2023-02-14T17:47:37;10.00;99.90
22071;DHT22;11200;51.488;6.668;2023-02-14T17:50:04;9.90;99.90
22071;DHT22;11200;51.488;6.668;2023-02-14T17:52:30;9.80;99.90
22071;DHT22;11200;51.488;6.668;2023-02-14T17:54:56;9.70;99.90
22071;DHT22;11200;51.488;6.668;2023-02-14T17:57:22;9.70;99.90
22071;DHT22;11200;51.488;6.668;2023-02-14T17:59:48;9.60;99.90
22071;DHT22;11200;51.488;6.668;2023-02-14T18:02:13;9.60;99.90
22071;DHT22;11200;51.488;6.668;2023-02-14T18:04:39;9.50;99.90
22071;DHT22;11200;51.488;6.668;2023-02-14T18:07:05;9.40;99.90
22071;DHT22;11200;51.488;6.668;2023-02-14T18:09:30;9.30;99.90
22071;DHT22;11200;51.488;6.668;2023-02-14T18:11:56;9.30;99.90
22071;DHT22;11200;51.488;6.668;2023-02-14T18:14:23;9.20;99.90
22071;DHT22;11200;51.488;6.668;2023-02-14T18:16:49;9.10;99.90
22071;DHT22;11200;51.488;6.668;2023-02-14T18:19:15;9.00;99.90
22071;DHT22;11200;51.488;6.668;2023-02-14T18:21:42;9.00;99.90
22071;DHT22;11200;51.488;6.668;2023-02-14T18:24:09;8.90;99.90
22071;DHT22;11200;51.488;6.668;2023-02-14T18:26:36;8.80;99.90
22071;DHT22;11200;51.488;6.668;2023-02-14T18:29:02;8.70;99.90
22071;DHT22;11200;51.488;6.668;2023-02-14T18:31:32;8.70;99.90
22071;DHT22;11200;51.488;6.668;2023-02-14T18:33:58;8.60;99.90
22071;DHT22;11200;51.488;6.668;2023-02-14T18:36:28;8.60;99.90
22071;DHT22;11200;51.488;6.668;2023-02-14T18:38:54;8.50;99.90
22071;DHT22;11200;51.488;6.668;2023-02-14T18:41:21;8.50;99.90
22071;DHT22;11200;51.488;6.668;2023-02-14T18:43:47;8.40;99.90
22071;DHT22;11200;51.488;6.668;2023-02-14T18:46:26;8.30;99.90
22071;DHT22;11200;51.488;6.668;2023-02-14T18:48:54;8.20;99.90
22071;DHT22;11200;51.488;6.668;2023-02-14T18:51:26;8.20;99.90
22071;DHT22;11200;51.488;6.668;2023-02-14T18:53:52;8.10;99.90
22071;DHT22;11200;51.488;6.668;2023-02-14T18:56:21;8.10;99.90
22071;DHT22;11200;51.488;6.668;2023-02-14T18:58:49;8.00;99.90
22071;DHT22;11200;51.488;6.668;2023-02-14T19:01:20;8.00;99.90
22071;DHT22;11200;51.488;6.668;2023-02-14T19:03:47;7.80;99.90
22071;DHT22;11200;51.488;6.668;2023-02-14T19:06:14;7.80;99.90
22071;DHT22;11200;51.488;6.668;2023-02-14T19:08:41;7.70;99.90
22071;DHT22;11200;51.488;6.668;2023-02-14T19:11:17;7.70;99.90
22071;DHT22;11200;51.488;6.668;2023-02-14T19:13:45;7.60;99.90
22071;DHT22;11200;51.488;6.668;2023-02-14T19:16:13;7.60;99.90
22071;DHT22;11200;51.488;6.668;2023-02-14T19:18:39;7.50;99.90
22071;DHT22;11200;51.488;6.668;2023-02-14T19:21:16;7.40;99.90
22071;DHT22;11200;51.488;6.668;2023-02-14T19:23:44;7.40;99.90
22071;DHT22;11200;51.488;6.668;2023-02-14T19:26:22;7.30;99.90
22071;DHT22;11200;51.488;6.668;2023-02-14T19:28:52;7.30;99.90
22071;DHT22;11200;51.488;6.668;2023-02-14T19:31:18;7.20;99.90
22071;DHT22;11200;51.488;6.668;2023-02-14T19:33:45;7.20;99.90
22071;DHT22;11200;51.488;6.668;2023-02-14T19:36:13;7.20;99.90
22071;DHT22;11200;51.488;6.668;2023-02-14T19:38:44;7.10;99.90
22071;DHT22;11200;51.488;6.668;2023-02-14T19:43:44;7.10;99.90
22071;DHT22;11200;51.488;6.668;2023-02-14T19:46:12;6.90;99.90
22071;DHT22;11200;51.488;6.668;2023-02-14T19:48:38;6.80;99.90
22071;DHT22;11200;51.488;6.668;2023-02-14T19:51:03;6.80;99.90
22071;DHT22;11200;51.488;6.668;2023-02-14T19:53:31;6.90;99.90
22071;DHT22;11200;51.488;6.668;2023-02-14T19:55:57;6.70;99.90
22071;DHT22;11200;51.488;6.668;2023-02-14T19:58:22;6.70;99.90
22071;DHT22;11200;51.488;6.668;2023-02-14T20:00:57;6.60;99.90
22071;DHT22;11200;51.488;6.668;2023-02-14T20:03:24;6.60;99.90
22071;DHT22;11200;51.488;6.668;2023-02-14T20:05:50;6.50;99.90
22071;DHT22;11200;51.488;6.668;2023-02-14T20:08:16;6.50;99.90
22071;DHT22;11200;51.488;6.668;2023-02-14T20:10:43;6.40;99.90
22071;DHT22;11200;51.488;6.668;2023-02-14T20:13:09;6.40;99.90
22071;DHT22;11200;51.488;6.668;2023-02-14T20:15:35;6.40;99.90
22071;DHT22;11200;51.488;6.668;2023-02-14T20:18:02;6.30;99.90
22071;DHT22;11200;51.488;6.668;2023-02-14T20:20:28;6.20;99.90
22071;DHT22;11200;51.488;6.668;2023-02-14T20:23:14;6.40;99.90
22071;DHT22;11200;51.488;6.668;2023-02-14T20:25:40;6.10;99.90
22071;DHT22;11200;51.488;6.668;2023-02-14T20:28:05;6.10;99.90
22071;DHT22;11200;51.488;6.668;2023-02-14T20:30:32;6.00;99.90
22071;DHT22;11200;51.488;6.668;2023-02-14T20:32:57;6.00;99.90
22071;DHT22;11200;51.488;6.668;2023-02-14T20:35:23;6.00;99.90
22071;DHT22;11200;51.488;6.668;2023-02-14T20:37:48;5.90;99.90
22071;DHT22;11200;51.488;6.668;2023-02-14T20:40:17;6.00;99.90
22071;DHT22;11200;51.488;6.668;2023-02-14T20:42:43;5.80;99.90
22071;DHT22;11200;51.488;6.668;2023-02-14T20:45:09;5.70;99.90
22071;DHT22;11200;51.488;6.668;2023-02-14T20:47:35;5.70;99.90
22071;DHT22;11200;51.488;6.668;2023-02-14T20:50:01;5.80;99.90
22071;DHT22;11200;51.488;6.668;2023-02-14T20:52:26;5.70;99.90
22071;DHT22;11200;51.488;6.668;2023-02-14T20:54:52;5.60;99.90
22071;DHT22;11200;51.488;6.668;2023-02-14T20:57:18;5.60;99.90
22071;DHT22;11200;51.488;6.668;2023-02-14T20:59:43;5.60;99.90
22071;DHT22;11200;51.488;6.668;2023-02-14T21:02:09;5.50;99.90
22071;DHT22;11200;51.488;6.668;2023-02-14T21:04:36;5.40;99.90
22071;DHT22;11200;51.488;6.668;2023-02-14T21:07:01;5.40;99.90
22071;DHT22;11200;51.488;6.668;2023-02-14T21:09:32;5.30;99.90
22071;DHT22;11200;51.488;6.668;2023-02-14T21:11:57;5.30;99.90
22071;DHT22;11200;51.488;6.668;2023-02-14T21:14:23;5.30;99.90
22071;DHT22;11200;51.488;6.668;2023-02-14T21:16:49;5.20;99.90
22071;DHT22;11200;51.488;6.668;2023-02-14T21:19:14;5.20;99.90
22071;DHT22;11200;51.488;6.668;2023-02-14T21:21:40;5.20;99.90
22071;DHT22;11200;51.488;6.668;2023-02-14T21:24:11;5.50;99.90
22071;DHT22;11200;51.488;6.668;2023-02-14T21:26:38;5.10;99.90
22071;DHT22;11200;51.488;6.668;2023-02-14T21:29:05;5.30;99.90
22071;DHT22;11200;51.488;6.668;2023-02-14T21:31:31;5.10;99.90
22071;DHT22;11200;51.488;6.668;2023-02-14T21:33:58;5.10;99.90
22071;DHT22;11200;51.488;6.668;2023-02-14T21:36:29;5.00;99.90
22071;DHT22;11200;51.488;6.668;2023-02-14T21:38:56;5.10;99.90
22071;DHT22;11200;51.488;6.668;2023-02-14T21:41:24;5.00;99.90
22071;DHT22;11200;51.488;6.668;2023-02-14T21:43:52;5.30;99.90
22071;DHT22;11200;51.488;6.668;2023-02-14T21:46:20;5.10;99.90
22071;DHT22;11200;51.488;6.668;2023-02-14T21:48:52;4.90;99.90
22071;DHT22;11200;51.488;6.668;2023-02-14T21:51:36;4.90;99.90
22071;DHT22;11200;51.488;6.668;2023-02-14T21:54:03;4.80;99.90
22071;DHT22;11200;51.488;6.668;2023-02-14T21:56:29;4.80;99.90
22071;DHT22;11200;51.488;6.668;2023-02-14T21:58:55;4.80;99.90
22071;DHT22;11200;51.488;6.668;2023-02-14T22:01:26;4.80;99.90
22071;DHT22;11200;51.488;6.668;2023-02-14T22:03:53;4.80;99.90
22071;DHT22;11200;51.488;6.668;2023-02-14T22:06:20;4.80;99.90
22071;DHT22;11200;51.488;6.668;2023-02-14T22:08:46;4.80;99.90
22071;DHT22;11200;51.488;6.668;2023-02-14T22:11:15;4.90;99.90
22071;DHT22;11200;51.488;6.668;2023-02-14T22:13:41;4.80;99.90
22071;DHT22;11200;51.488;6.668;2023-02-14T22:16:10;4.80;99.90
22071;DHT22;11200;51.488;6.668;2023-02-14T22:18:36;4.70;99.90
22071;DHT22;11200;51.488;6.668;2023-02-14T22:21:06;4.90;99.90
22071;DHT22;11200;51.488;6.668;2023-02-14T22:23:33;4.80;99.90
22071;DHT22;11200;51.488;6.668;2023-02-14T22:26:17;4.70;99.90
22071;DHT22;11200;51.488;6.668;2023-02-14T22:28:45;4.70;99.90
22071;DHT22;11200;51.488;6.668;2023-02-14T22:31:11;4.70;99.90
22071;DHT22;11200;51.488;6.668;2023-02-14T22:33:37;4.70;99.90
22071;DHT22;11200;51.488;6.668;2023-02-14T22:36:04;4.70;99.90
22071;DHT22;11200;51.488;6.668;2023-02-14T22:38:30;4.60;99.90
22071;DHT22;11200;51.488;6.668;2023-02-14T22:40:55;4.60;99.90
22071;DHT22;11200;51.488;6.668;2023-02-14T22:43:21;4.60;99.90
22071;DHT22;11200;51.488;6.668;2023-02-14T22:45:48;4.60;99.90
22071;DHT22;11200;51.488;6.668;2023-02-14T22:48:14;4.50;99.90
22071;DHT22;11200;51.488;6.668;2023-02-14T22:50:41;4.50;99.90
22071;DHT22;11200;51.488;6.668;2023-02-14T22:53:07;4.50;99.90